Time;durP1;ratioP1;P1;durP2;ratioP2;P2;SDS_P1;SDS_P2;PMS_P1;PMS_P2;Temp;Humidity;BMP_temperature;BMP_pressure;BME280_temperature;BME280_humidity;BME280_pressure;Samples;Min_cycle;Max_cycle;Signal;HPM_P1;HPM_P2
2023/04/18 00:02:09;;;;;;;11.25;6.25;;;;;;;17.82;37.49;102229.50;5050907;28;20064;-66
2023/04/18 00:04:34;;;;;;;11.50;6.47;;;;;;;17.81;37.58;102227.78;5051072;28;20450;-66
2023/04/18 00:07:00;;;;;;;11.15;6.07;;;;;;;17.81;37.39;102233.19;5026302;28;20029;-66
2023/04/18 00:09:26;;;;;;;11.07;6.18;;;;;;;17.78;37.22;102230.78;5051959;28;20032;-66
2023/04/18 00:11:51;;;;;;;13.40;6.15;;;;;;;17.76;37.04;102231.91;5055904;28;20043;-66
2023/04/18 00:14:17;;;;;;;7.85;5.15;;;;;;;17.71;37.50;102226.94;5037658;28;20086;-66
2023/04/18 00:16:43;;;;;;;11.50;6.18;;;;;;;17.68;37.23;102221.78;5037841;28;20507;-66
2023/04/18 00:19:08;;;;;;;11.70;6.43;;;;;;;17.70;38.03;102236.03;5054295;28;20037;-66
2023/04/18 00:21:34;;;;;;;12.57;5.68;;;;;;;17.67;37.23;102224.66;5054761;28;20021;-66
2023/04/18 00:24:00;;;;;;;11.23;6.72;;;;;;;17.66;37.71;102229.22;5054190;28;20036;-66
2023/04/18 00:26:26;;;;;;;9.50;5.50;;;;;;;17.63;37.63;102224.06;5070773;28;20404;-66
2023/04/18 00:28:52;;;;;;;12.30;6.50;;;;;;;17.58;37.64;102223.66;5054076;28;20048;-66
2023/04/18 00:31:17;;;;;;;11.15;7.30;;;;;;;17.57;37.75;102212.94;5055239;28;20400;-66
2023/04/18 00:33:42;;;;;;;12.05;6.70;;;;;;;17.55;37.39;102221.22;5054338;28;20473;-65
2023/04/18 00:36:08;;;;;;;14.10;6.82;;;;;;;17.53;38.13;102222.31;5053656;28;20040;-67
2023/04/18 00:38:34;;;;;;;12.07;6.50;;;;;;;17.50;38.17;102218.03;5053866;28;20067;-67
2023/04/18 00:41:01;;;;;;;13.63;6.65;;;;;;;17.48;37.71;102217.28;5054062;28;20029;-66
2023/04/18 00:43:26;;;;;;;11.75;5.90;;;;;;;17.46;38.72;102216.59;5020810;28;20025;-66
2023/04/18 00:45:52;;;;;;;12.27;6.43;;;;;;;17.44;38.35;102218.59;5054970;28;20037;-66
2023/04/18 00:48:18;;;;;;;12.50;6.68;;;;;;;17.39;37.37;102204.63;5037460;28;20121;-67
2023/04/18 00:50:44;;;;;;;9.95;5.63;;;;;;;17.38;37.99;102211.00;5020486;28;20116;-66
2023/04/18 00:53:09;;;;;;;11.63;6.40;;;;;;;17.37;37.54;102212.00;5053894;28;20033;-67
2023/04/18 00:55:35;;;;;;;10.70;6.28;;;;;;;17.33;37.77;102206.03;5020656;28;20052;-66
2023/04/18 00:58:01;;;;;;;12.43;6.72;;;;;;;17.30;38.07;102208.16;5053585;28;20017;-66
2023/04/18 01:00:26;;;;;;;16.60;7.15;;;;;;;17.29;37.88;102209.13;5037794;28;20516;-66
2023/04/18 01:02:52;;;;;;;10.43;6.05;;;;;;;17.25;38.31;102210.44;5053326;28;20052;-66
2023/04/18 01:05:20;;;;;;;11.93;6.88;;;;;;;17.22;38.24;102208.84;5053507;28;20036;-66
2023/04/18 01:07:45;;;;;;;11.52;6.95;;;;;;;17.19;37.45;102208.25;5036943;28;20037;-66
2023/04/18 01:10:11;;;;;;;9.65;6.10;;;;;;;17.19;38.24;102208.25;5036902;28;20037;-65
2023/04/18 01:12:36;;;;;;;12.13;6.82;;;;;;;17.16;37.81;102198.56;5054004;28;20024;-66
2023/04/18 01:15:03;;;;;;;11.85;6.18;;;;;;;17.14;37.45;102199.69;5053230;28;20401;-66
2023/04/18 01:17:29;;;;;;;15.60;6.38;;;;;;;17.10;38.06;102201.81;5053322;28;20469;-66
2023/04/18 01:19:55;;;;;;;15.95;6.57;;;;;;;17.10;37.29;102203.66;5053284;28;20064;-67
2023/04/18 01:22:21;;;;;;;10.85;5.70;;;;;;;17.07;38.07;102201.22;5035495;28;20037;-67
2023/04/18 01:24:46;;;;;;;10.10;5.70;;;;;;;17.05;36.85;102193.25;5036854;28;20051;-66
2023/04/18 01:27:12;;;;;;;12.52;5.90;;;;;;;17.03;37.07;102191.69;5053226;28;20044;-66
2023/04/18 01:29:38;;;;;;;13.05;5.32;;;;;;;17.00;37.49;102194.66;5053094;28;20436;-66
2023/04/18 01:32:04;;;;;;;9.02;5.53;;;;;;;16.96;37.26;102190.50;5053075;28;20060;-66
2023/04/18 01:34:29;;;;;;;9.90;5.78;;;;;;;16.94;37.79;102189.81;5052878;28;20032;-66
2023/04/18 01:36:55;;;;;;;12.45;5.70;;;;;;;16.89;38.38;102191.06;5052866;28;20072;-66
2023/04/18 01:39:20;;;;;;;8.98;6.00;;;;;;;16.87;38.54;102193.03;5036574;28;20476;-66
2023/04/18 01:41:45;;;;;;;13.25;5.00;;;;;;;16.84;38.15;102187.91;5054027;28;20040;-66
2023/04/18 01:44:11;;;;;;;10.77;6.22;;;;;;;16.79;37.69;102182.06;5036139;28;20088;-67
2023/04/18 01:46:36;;;;;;;9.73;5.93;;;;;;;16.79;38.38;102184.75;5019744;28;20386;-66
2023/04/18 01:49:02;;;;;;;12.48;6.70;;;;;;;16.77;37.34;102184.03;5053101;28;20025;-66
2023/04/18 01:51:28;;;;;;;8.32;5.38;;;;;;;16.71;37.66;102176.47;5053147;28;20100;-66
2023/04/18 01:53:53;;;;;;;14.20;6.20;;;;;;;16.71;38.01;102176.47;5019454;28;20033;-66
2023/04/18 01:56:18;;;;;;;11.60;5.50;;;;;;;16.70;38.39;102169.31;5035848;28;20041;-66
2023/04/18 01:58:44;;;;;;;11.15;5.30;;;;;;;16.68;36.68;102170.47;5019178;28;20033;-66
2023/04/18 02:01:09;;;;;;;8.23;4.97;;;;;;;16.67;36.77;102168.72;5052095;28;20043;-66
2023/04/18 02:03:35;;;;;;;6.10;4.68;;;;;;;16.65;37.54;102173.44;5036145;28;20043;-66
2023/04/18 02:06:02;;;;;;;8.18;5.32;;;;;;;16.62;37.58;102171.00;5052287;28;20570;-65
2023/04/18 02:08:29;;;;;;;8.65;4.80;;;;;;;16.58;37.97;102170.41;5035651;28;20041;-65
2023/04/18 02:10:55;;;;;;;9.05;4.50;;;;;;;16.57;36.74;102167.84;5053416;28;20044;-66
2023/04/18 02:13:20;;;;;;;8.10;4.25;;;;;;;16.54;37.53;102168.97;5052194;28;20029;-66
2023/04/18 02:15:46;;;;;;;11.43;5.57;;;;;;;16.52;36.74;102173.63;5052615;28;20553;-66
2023/04/18 02:18:11;;;;;;;12.43;5.50;;;;;;;16.50;36.61;102172.88;5019010;28;20455;-66
2023/04/18 02:20:37;;;;;;;11.32;5.00;;;;;;;16.46;38.02;102165.19;5052032;28;20033;-65
2023/04/18 02:23:02;;;;;;;9.23;4.55;;;;;;;16.46;38.08;102176.00;5051949;28;20120;-66
2023/04/18 02:25:28;;;;;;;6.20;4.68;;;;;;;16.42;37.57;102170.00;5035600;28;20036;-66
2023/04/18 02:27:55;;;;;;;16.80;5.32;;;;;;;16.42;36.82;102179.97;5051713;28;20112;-66
2023/04/18 02:30:20;;;;;;;10.55;5.10;;;;;;;16.38;36.81;102173.13;5035723;28;20067;-66
2023/04/18 02:32:46;;;;;;;9.45;5.25;;;;;;;16.36;36.59;102175.13;5051368;28;20052;-66
2023/04/18 02:35:12;;;;;;;7.15;4.28;;;;;;;16.28;36.78;102171.22;5052957;28;20078;-66
2023/04/18 02:37:37;;;;;;;10.27;4.95;;;;;;;16.27;36.61;102171.34;5035146;28;20112;-66
2023/04/18 02:40:06;;;;;;;8.55;5.57;;;;;;;16.24;37.66;102182.44;5052914;28;20056;-66
2023/04/18 02:42:32;;;;;;;16.92;5.22;;;;;;;16.19;38.00;102174.72;5052246;28;20024;-66
2023/04/18 02:44:57;;;;;;;6.30;4.40;;;;;;;16.18;38.32;102183.81;5052830;28;20512;-66
2023/04/18 02:47:22;;;;;;;13.32;4.85;;;;;;;16.17;37.22;102192.06;5051811;28;20497;-66
2023/04/18 02:49:48;;;;;;;8.10;4.60;;;;;;;16.12;38.32;102178.06;5051722;28;20048;-66
2023/04/18 02:52:13;;;;;;;11.52;5.00;;;;;;;16.07;38.08;102180.31;5051404;28;20403;-66
2023/04/18 02:54:39;;;;;;;6.95;4.30;;;;;;;16.01;37.98;102179.00;5052222;28;20079;-65
2023/04/18 02:57:04;;;;;;;20.42;5.65;;;;;;;15.99;38.05;102177.44;5035149;28;20106;-65
2023/04/18 02:59:30;;;;;;;8.32;5.32;;;;;;;15.97;38.17;102172.13;5050435;28;20530;-66
2023/04/18 03:01:55;;;;;;;16.77;5.63;;;;;;;15.95;37.68;102166.00;5051346;28;20064;-66
2023/04/18 03:04:20;;;;;;;9.45;4.85;;;;;;;15.93;38.29;102167.13;5051425;28;20119;-66
2023/04/18 03:06:47;;;;;;;8.70;4.93;;;;;;;15.90;38.48;102172.78;5053991;28;20107;-66
2023/04/18 03:09:12;;;;;;;9.30;4.65;;;;;;;15.88;37.60;102180.19;5054777;28;20091;-66
2023/04/18 03:11:38;;;;;;;8.65;4.95;;;;;;;15.83;37.99;102177.03;5038018;28;20033;-66
2023/04/18 03:14:03;;;;;;;13.35;4.93;;;;;;;15.79;37.41;102175.56;5036807;28;20116;-67
2023/04/18 03:16:29;;;;;;;7.00;4.55;;;;;;;15.76;38.53;102176.66;5052704;28;20061;-66
2023/04/18 03:18:55;;;;;;;9.98;5.32;;;;;;;15.74;36.96;102179.50;5051451;28;20400;-66
2023/04/18 03:21:20;;;;;;;11.98;5.63;;;;;;;15.68;37.09;102168.38;5051743;28;20029;-66
2023/04/18 03:23:45;;;;;;;10.82;5.00;;;;;;;15.69;37.27;102175.47;5018212;28;20501;-65
2023/04/18 03:26:12;;;;;;;9.55;5.10;;;;;;;15.65;37.35;102177.59;5034970;28;20112;-65
2023/04/18 03:28:39;;;;;;;10.50;4.18;;;;;;;15.60;38.48;102177.13;5034830;28;20037;-66
2023/04/18 03:31:05;;;;;;;8.63;4.95;;;;;;;15.60;37.71;102181.66;5034868;28;20029;-65
2023/04/18 03:33:30;;;;;;;10.52;5.10;;;;;;;15.55;38.20;102187.44;5051647;28;20488;-66
2023/04/18 03:35:56;;;;;;;8.85;4.78;;;;;;;15.52;38.30;102182.28;5034889;28;20041;-66
2023/04/18 03:38:21;;;;;;;8.32;4.95;;;;;;;15.45;37.01;102172.09;5051102;28;20456;-66
2023/04/18 03:40:46;;;;;;;7.20;4.20;;;;;;;15.45;38.58;102178.34;5052504;28;20500;-66
2023/04/18 03:43:12;;;;;;;11.27;5.22;;;;;;;15.40;37.49;102169.78;5034372;28;20511;-66
2023/04/18 03:45:37;;;;;;;9.23;4.22;;;;;;;15.37;37.23;102177.28;5054022;28;20029;-66
2023/04/18 03:48:03;;;;;;;10.52;5.40;;;;;;;15.34;37.31;102181.09;5038566;28;20057;-66
2023/04/18 03:50:29;;;;;;;9.07;4.85;;;;;;;15.31;37.88;102175.06;5054964;28;20047;-65
2023/04/18 03:52:54;;;;;;;10.65;5.30;;;;;;;15.31;38.72;102181.34;5054696;28;20036;-67
2023/04/18 03:55:20;;;;;;;10.05;5.22;;;;;;;15.28;38.82;102181.59;5055990;28;20445;-65
2023/04/18 03:57:46;;;;;;;9.10;4.50;;;;;;;15.25;38.86;102175.56;5056337;28;20021;-65
2023/04/18 04:00:12;;;;;;;8.68;5.05;;;;;;;15.22;38.19;102176.69;5021362;28;20053;-66
2023/04/18 04:02:38;;;;;;;7.85;4.28;;;;;;;15.20;39.01;102177.81;5037705;28;20040;-65
2023/04/18 04:05:03;;;;;;;10.82;4.70;;;;;;;15.19;38.90;102176.94;5055966;28;20534;-66
2023/04/18 04:07:30;;;;;;;7.85;4.53;;;;;;;15.17;39.26;102184.31;5055786;28;20504;-66
2023/04/18 04:09:57;;;;;;;9.70;5.30;;;;;;;15.14;38.56;102179.16;5037966;28;20033;-66
2023/04/18 04:12:22;;;;;;;8.13;4.53;;;;;;;15.10;39.15;102183.09;5055172;28;20431;-66
2023/04/18 04:14:48;;;;;;;11.40;5.28;;;;;;;15.11;39.28;102184.81;5021313;28;20029;-66
2023/04/18 04:17:13;;;;;;;8.73;5.28;;;;;;;15.10;38.37;102188.50;5037483;28;20029;-65
2023/04/18 04:19:38;;;;;;;12.80;4.32;;;;;;;15.07;38.47;102181.50;5021174;28;20060;-66
2023/04/18 04:22:04;;;;;;;7.72;4.70;;;;;;;15.05;39.32;102190.69;5037574;28;20113;-66
2023/04/18 04:24:29;;;;;;;10.18;5.07;;;;;;;15.04;38.11;102194.41;5038016;28;20473;-66
2023/04/18 04:26:55;;;;;;;8.48;4.53;;;;;;;15.00;38.14;102192.91;5054193;28;20040;-66
2023/04/18 04:29:20;;;;;;;9.93;5.30;;;;;;;14.96;39.32;102191.47;5055326;28;20036;-66
2023/04/18 04:31:45;;;;;;;9.13;5.10;;;;;;;14.97;38.69;102193.16;5054034;28;20455;-65
2023/04/18 04:34:11;;;;;;;11.15;5.70;;;;;;;14.92;39.77;102184.59;5054300;28;20432;-65
2023/04/18 04:36:36;;;;;;;8.23;4.80;;;;;;;14.94;38.33;102198.81;5038154;28;20029;-66
2023/04/18 04:39:05;;;;;;;7.72;4.97;;;;;;;14.94;39.79;102204.19;5037452;28;20029;-66
2023/04/18 04:41:30;;;;;;;11.43;5.22;;;;;;;14.91;39.45;102201.75;5053931;28;20044;-66
2023/04/18 04:43:56;;;;;;;14.43;5.63;;;;;;;14.89;38.73;102198.31;5053576;28;20072;-66
2023/04/18 04:46:21;;;;;;;10.18;5.50;;;;;;;14.87;39.17;102194.91;5055177;28;20025;-66
2023/04/18 04:48:48;;;;;;;10.63;4.90;;;;;;;14.87;39.23;102200.28;5037615;28;20025;-66
2023/04/18 04:51:13;;;;;;;10.20;5.25;;;;;;;14.85;38.82;102202.28;5055218;28;20048;-66
2023/04/18 04:53:39;;;;;;;9.75;5.25;;;;;;;14.85;39.76;102210.38;5020768;28;20397;-67
2023/04/18 04:56:04;;;;;;;9.60;5.07;;;;;;;14.84;39.01;102203.22;5020419;28;20053;-66
2023/04/18 04:58:30;;;;;;;7.43;4.43;;;;;;;14.87;38.85;102208.38;5053853;28;20044;-66
2023/04/18 05:00:55;;;;;;;12.30;5.18;;;;;;;14.87;38.39;102214.66;5054505;28;20063;-66
2023/04/18 05:03:21;;;;;;;8.60;5.57;;;;;;;14.82;38.40;102205.22;5037275;28;20477;-65
2023/04/18 05:05:47;;;;;;;11.27;5.25;;;;;;;14.85;39.70;102208.50;5036872;28;20036;-65
2023/04/18 05:08:12;;;;;;;11.00;4.53;;;;;;;14.88;38.60;102205.56;5020173;28;20496;-66
2023/04/18 05:10:38;;;;;;;8.57;5.25;;;;;;;14.88;39.41;102210.13;5053294;28;20025;-66
2023/04/18 05:13:03;;;;;;;9.48;5.63;;;;;;;14.90;38.77;102208.16;5053401;28;20107;-65
2023/04/18 05:15:30;;;;;;;8.52;4.72;;;;;;;14.94;40.07;102210.47;5053717;28;20056;-65
2023/04/18 05:17:56;;;;;;;10.25;4.93;;;;;;;14.98;38.38;102211.94;5053351;28;20116;-65
2023/04/18 05:20:21;;;;;;;8.82;5.63;;;;;;;15.02;38.69;102209.84;5053742;28;20037;-65
2023/04/18 05:22:47;;;;;;;9.65;4.13;;;;;;;15.07;40.07;102210.34;5053130;28;20025;-64
2023/04/18 05:25:12;;;;;;;7.95;4.68;;;;;;;15.14;38.58;102211.56;5020425;28;20029;-64
2023/04/18 05:27:38;;;;;;;12.48;5.60;;;;;;;15.22;38.41;102219.88;5053447;28;20373;-66
2023/04/18 05:30:04;;;;;;;9.25;5.45;;;;;;;15.30;39.90;102217.41;5036491;28;20056;-66
2023/04/18 05:32:29;;;;;;;13.20;5.00;;;;;;;15.36;38.63;102219.59;5020099;28;20523;-67
2023/04/18 05:34:55;;;;;;;10.43;4.90;;;;;;;15.44;38.30;102214.44;5037812;28;20201;-69
2023/04/18 05:37:21;;;;;;;11.60;5.03;;;;;;;15.53;40.11;102224.50;5028925;28;20478;-71
2023/04/18 05:39:47;;;;;;;10.57;5.07;;;;;;;15.63;39.67;102224.63;5034241;28;20025;-70
2023/04/18 05:42:12;;;;;;;13.65;5.78;;;;;;;15.74;39.48;102217.31;5017164;28;20037;-70
2023/04/18 05:44:37;;;;;;;11.55;5.05;;;;;;;15.85;38.41;102229.09;5034119;28;20068;-66
2023/04/18 05:47:06;;;;;;;9.65;4.90;;;;;;;15.95;38.36;102224.59;5032655;28;20044;-67
2023/04/18 05:49:31;;;;;;;10.38;4.97;;;;;;;16.05;38.92;102225.56;5032814;28;20029;-67
2023/04/18 05:51:57;;;;;;;11.30;5.45;;;;;;;16.18;38.40;102231.63;5032536;28;20443;-67
2023/04/18 05:54:24;;;;;;;11.48;4.72;;;;;;;16.29;38.79;102234.28;5016481;28;20036;-66
2023/04/18 05:56:50;;;;;;;9.70;4.35;;;;;;;16.43;39.33;102241.19;5033697;28;20079;-66
2023/04/18 05:59:15;;;;;;;11.20;4.85;;;;;;;16.56;38.23;102245.44;5049066;28;20033;-67
2023/04/18 06:01:41;;;;;;;14.32;5.47;;;;;;;16.66;38.82;102243.66;5032124;28;20055;-67
2023/04/18 06:04:07;;;;;;;8.63;4.75;;;;;;;16.78;38.57;102237.16;5048870;28;20037;-66
2023/04/18 06:06:33;;;;;;;7.00;4.40;;;;;;;16.87;38.33;102236.34;5034053;28;20627;-67
2023/04/18 06:08:59;;;;;;;8.70;5.03;;;;;;;17.02;37.86;102244.13;5015251;28;20042;-66
2023/04/18 06:11:24;;;;;;;8.65;4.35;;;;;;;17.12;38.57;102245.84;5032328;28;20197;-67
2023/04/18 06:13:50;;;;;;;10.05;4.35;;;;;;;17.20;37.93;102247.88;5016069;28;20033;-67
2023/04/18 06:16:15;;;;;;;7.90;4.28;;;;;;;17.30;38.83;102244.22;5015958;28;20044;-67
2023/04/18 06:18:40;;;;;;;8.95;4.95;;;;;;;17.38;39.03;102246.22;5032827;28;20021;-67
2023/04/18 06:21:06;;;;;;;11.98;4.82;;;;;;;17.48;38.95;102249.81;5015744;28;20030;-68
2023/04/18 06:23:31;;;;;;;6.63;4.07;;;;;;;17.57;38.86;102257.16;5032317;28;20501;-67
2023/04/18 06:25:57;;;;;;;8.55;4.28;;;;;;;17.68;38.12;102253.44;5015651;28;20107;-66
2023/04/18 06:28:23;;;;;;;8.07;4.65;;;;;;;17.80;38.47;102257.75;5032620;28;20033;-68
2023/04/18 06:30:48;;;;;;;8.40;3.85;;;;;;;17.89;37.79;102257.78;5015534;28;20029;-67
2023/04/18 06:33:14;;;;;;;7.05;4.05;;;;;;;17.97;38.19;102251.63;5033131;28;20025;-67
2023/04/18 06:35:40;;;;;;;7.68;4.35;;;;;;;18.09;38.14;102252.34;5032032;28;20030;-69
2023/04/18 06:38:06;;;;;;;8.27;4.45;;;;;;;18.18;38.00;102262.31;5031795;28;20033;-66
2023/04/18 06:40:31;;;;;;;7.68;4.28;;;;;;;18.18;38.48;102267.75;5015410;28;20025;-67
2023/04/18 06:42:56;;;;;;;10.63;4.20;;;;;;;18.06;38.38;102266.19;5033031;28;20108;-67
2023/04/18 06:45:22;;;;;;;7.00;4.25;;;;;;;18.12;38.41;102261.03;5015857;28;20064;-67
2023/04/18 06:47:47;;;;;;;7.30;3.95;;;;;;;18.28;37.07;102263.19;5031754;28;20037;-67
2023/04/18 06:50:13;;;;;;;8.07;4.47;;;;;;;18.40;37.53;102270.16;5031651;28;20098;-66
2023/04/18 06:52:43;;;;;;;13.40;5.07;;;;;;;18.51;37.88;102267.31;5048202;28;20040;-66
2023/04/18 06:55:09;;;;;;;9.20;4.38;;;;;;;18.58;37.16;102276.59;5032770;28;20056;-67
2023/04/18 06:57:34;;;;;;;7.40;3.83;;;;;;;18.67;37.42;102270.31;5015590;28;20033;-67
2023/04/18 07:00:00;;;;;;;8.90;4.90;;;;;;;18.86;37.61;102275.69;5048153;28;20053;-67
2023/04/18 07:02:25;;;;;;;8.82;4.78;;;;;;;18.68;38.18;102277.44;5048250;28;20029;-65
2023/04/18 07:04:50;;;;;;;7.28;4.38;;;;;;;18.51;37.82;102280.88;4998879;28;20029;-69
2023/04/18 07:07:16;;;;;;;8.75;5.03;;;;;;;18.35;38.06;102280.59;5014941;28;20038;-68
2023/04/18 07:09:41;;;;;;;10.23;5.18;;;;;;;18.23;38.22;102277.16;5015464;28;20040;-68
2023/04/18 07:12:06;;;;;;;7.85;5.10;;;;;;;18.27;37.76;102286.75;5031717;28;20040;-66
2023/04/18 07:14:32;;;;;;;11.50;5.15;;;;;;;18.21;37.62;102278.31;5031517;28;20029;-67
2023/04/18 07:16:57;;;;;;;9.43;4.45;;;;;;;18.20;37.96;102282.03;5014909;28;20036;-67
2023/04/18 07:19:23;;;;;;;7.97;5.10;;;;;;;18.17;38.21;102287.75;5033777;28;20489;-66
2023/04/18 07:21:48;;;;;;;9.77;5.43;;;;;;;18.11;38.82;102288.31;5035512;28;20032;-66
2023/04/18 07:24:14;;;;;;;10.32;5.07;;;;;;;18.04;38.10;102279.88;5035833;28;20048;-66
2023/04/18 07:26:39;;;;;;;7.68;5.13;;;;;;;18.00;37.92;102290.19;5035344;28;20497;-66
2023/04/18 07:29:05;;;;;;;9.07;5.15;;;;;;;17.90;38.47;102278.44;5035362;28;20038;-67
2023/04/18 07:31:30;;;;;;;8.52;5.40;;;;;;;17.94;37.96;102288.03;5036437;28;20080;-67
2023/04/18 07:33:56;;;;;;;8.80;4.63;;;;;;;17.91;37.57;102288.31;5019685;28;20037;-67
2023/04/18 07:36:22;;;;;;;11.30;5.90;;;;;;;17.91;38.64;102293.72;5020282;28;20125;-66
2023/04/18 07:38:47;;;;;;;8.68;5.38;;;;;;;17.91;38.55;102282.88;5036549;28;20397;-66
2023/04/18 07:41:13;;;;;;;8.23;4.93;;;;;;;17.98;38.42;102288.59;5018936;28;20117;-67
2023/04/18 07:43:39;;;;;;;12.38;5.80;;;;;;;18.01;38.73;102277.47;5018782;28;20030;-67
2023/04/18 07:46:06;;;;;;;11.25;5.32;;;;;;;18.18;37.62;102292.16;5018730;28;20036;-66
2023/04/18 07:48:31;;;;;;;7.65;5.07;;;;;;;18.34;38.59;102287.03;5036510;28;20030;-67
2023/04/18 07:50:56;;;;;;;9.38;5.97;;;;;;;18.60;37.87;102290.88;5018416;28;20079;-67
2023/04/18 07:53:22;;;;;;;9.48;5.32;;;;;;;19.22;37.06;102286.69;5034733;28;20040;-67
2023/04/18 07:55:48;;;;;;;7.18;5.18;;;;;;;19.70;37.28;102280.03;5018379;28;20037;-67
2023/04/18 07:58:13;;;;;;;10.27;5.70;;;;;;;19.81;37.30;102284.41;5051400;28;20029;-67
2023/04/18 08:00:41;;;;;;;10.95;6.07;;;;;;;19.80;37.94;102288.13;5034896;28;20049;-67
2023/04/18 08:03:09;;;;;;;7.38;5.28;;;;;;;20.11;37.01;102286.75;5034719;28;20049;-67
2023/04/18 08:05:34;;;;;;;11.23;6.32;;;;;;;20.32;36.73;102286.47;5034814;28;20037;-67
2023/04/18 08:08:00;;;;;;;13.85;5.97;;;;;;;20.72;36.48;102285.91;5035949;28;20038;-68
2023/04/18 08:10:25;;;;;;;10.32;5.65;;;;;;;21.04;36.49;102279.84;5017999;28;20071;-68
2023/04/18 08:12:51;;;;;;;9.60;4.90;;;;;;;21.32;36.16;102286.81;5034471;28;20059;-68
2023/04/18 08:15:16;;;;;;;10.38;5.57;;;;;;;21.60;35.37;102285.59;5001941;28;20108;-68
2023/04/18 08:17:43;;;;;;;9.13;5.65;;;;;;;21.79;35.89;102292.63;5017916;28;20489;-68
2023/04/18 08:20:11;;;;;;;9.65;5.50;;;;;;;21.95;35.84;102292.69;5018185;28;20048;-68
2023/04/18 08:22:37;;;;;;;10.35;5.88;;;;;;;22.15;35.13;102285.91;5018370;28;20445;-68
2023/04/18 08:25:02;;;;;;;9.60;5.57;;;;;;;22.39;35.35;102282.34;5017811;28;20112;-68
2023/04/18 08:27:28;;;;;;;8.65;5.20;;;;;;;22.57;35.01;102278.41;5018264;28;20524;-68
2023/04/18 08:29:54;;;;;;;11.77;5.35;;;;;;;22.77;34.95;102286.25;5035359;28;20068;-68
2023/04/18 08:32:19;;;;;;;12.52;5.47;;;;;;;23.04;34.52;102291.31;5033806;28;20065;-68
2023/04/18 08:34:45;;;;;;;6.88;4.88;;;;;;;23.24;34.72;102276.22;5034141;28;20039;-68
2023/04/18 08:37:11;;;;;;;7.18;5.20;;;;;;;23.30;34.35;102281.00;5017643;28;20036;-69
2023/04/18 08:39:36;;;;;;;11.05;5.28;;;;;;;23.51;33.74;102283.13;5019508;28;20030;-69
2023/04/18 08:42:02;;;;;;;10.52;5.53;;;;;;;23.41;33.39;102286.09;5034418;28;20040;-69
2023/04/18 08:44:28;;;;;;;9.20;4.63;;;;;;;23.36;33.70;102285.75;5017717;28;20429;-68
2023/04/18 08:46:54;;;;;;;9.25;4.85;;;;;;;23.36;34.07;102274.81;5034193;28;20544;-68
2023/04/18 08:49:21;;;;;;;8.02;5.50;;;;;;;23.67;33.92;102277.59;5017601;28;20030;-69
2023/04/18 08:51:49;;;;;;;8.35;5.35;;;;;;;23.86;33.18;102268.09;5017956;28;20056;-69
2023/04/18 08:54:17;;;;;;;11.02;5.22;;;;;;;24.13;32.83;102262.94;5017550;28;20497;-68
2023/04/18 08:56:43;;;;;;;8.15;5.00;;;;;;;24.43;33.08;102260.31;5001231;28;20033;-69
2023/04/18 08:59:10;;;;;;;10.30;4.97;;;;;;;24.61;32.83;102269.06;5016925;28;20045;-69
2023/04/18 09:01:56;;;;;;;6.63;4.45;;;;;;;24.56;32.60;102264.13;5017180;28;20029;-69
2023/04/18 09:04:33;;;;;;;6.97;3.83;;;;;;;24.72;32.40;102263.97;5050241;28;20033;-69
2023/04/18 09:06:59;;;;;;;8.77;4.80;;;;;;;24.87;32.46;102258.53;5033398;28;20060;-68
2023/04/18 09:09:26;;;;;;;6.32;3.70;;;;;;;24.81;31.94;102246.44;5034078;28;20075;-68
2023/04/18 09:12:06;;;;;;;8.27;4.35;;;;;;;24.65;32.09;102249.28;5050964;28;20501;-68
2023/04/18 09:14:31;;;;;;;5.05;4.07;;;;;;;24.70;31.97;102255.09;5033439;28;20030;-69
2023/04/18 09:16:57;;;;;;;6.68;4.38;;;;;;;24.65;32.26;102263.00;5034651;28;20030;-69
2023/04/18 09:19:22;;;;;;;8.55;4.00;;;;;;;24.54;32.41;102249.75;5049794;28;20045;-68
2023/04/18 09:21:56;;;;;;;6.55;3.38;;;;;;;24.22;32.16;102255.53;5016631;28;20075;-69
2023/04/18 09:24:23;;;;;;;6.05;4.03;;;;;;;24.00;32.06;102250.88;5017008;28;20060;-69
2023/04/18 09:26:49;;;;;;;5.43;3.70;;;;;;;23.66;32.60;102248.53;5016693;28;20053;-68
2023/04/18 09:29:21;;;;;;;4.40;3.42;;;;;;;23.54;32.36;102261.75;5000299;28;20060;-68
2023/04/18 09:32:00;;;;;;;5.20;3.03;;;;;;;24.16;31.37;102248.91;5017122;28;20037;-69
2023/04/18 09:34:28;;;;;;;6.75;3.15;;;;;;;23.94;31.95;102257.94;5000260;28;20458;-68
2023/04/18 09:37:10;;;;;;;4.93;2.70;;;;;;;23.70;32.29;102256.19;5033024;28;20027;-68
2023/04/18 09:39:37;;;;;;;4.00;2.88;;;;;;;23.56;31.66;102251.47;5033693;28;20025;-70
2023/04/18 09:42:03;;;;;;;4.90;3.47;;;;;;;23.47;31.68;102260.78;5015869;28;20034;-68
2023/04/18 09:44:28;;;;;;;6.82;3.42;;;;;;;23.25;32.47;102261.53;5016541;28;20425;-68
2023/04/18 09:46:54;;;;;;;6.60;3.20;;;;;;;23.16;32.36;102254.38;5016208;28;20037;-68
2023/04/18 09:49:21;;;;;;;5.28;3.25;;;;;;;22.94;32.51;102246.94;5032637;28;20057;-68
2023/04/18 09:51:50;;;;;;;9.73;3.17;;;;;;;22.80;32.68;102267.66;5016545;28;20064;-68
2023/04/18 09:54:16;;;;;;;5.00;3.20;;;;;;;22.64;32.77;102262.19;5016120;28;20037;-68
2023/04/18 09:56:43;;;;;;;5.70;3.20;;;;;;;22.38;32.69;102251.44;5032568;28;20044;-68
2023/04/18 09:59:10;;;;;;;4.38;2.90;;;;;;;22.16;32.90;102254.84;5015892;28;20042;-68
2023/04/18 10:01:35;;;;;;;4.07;3.05;;;;;;;21.97;32.88;102257.91;5016154;28;20029;-68
2023/04/18 10:04:08;;;;;;;6.60;4.15;;;;;;;21.94;33.12;102258.25;5102536;27;20407;-67
2023/04/18 10:06:37;;;;;;;5.75;3.03;;;;;;;22.03;32.77;102258.06;5032763;28;20044;-67
2023/04/18 10:09:03;;;;;;;8.10;3.75;;;;;;;22.26;32.54;102263.72;5032698;28;20052;-67
2023/04/18 10:11:31;;;;;;;5.65;3.47;;;;;;;22.28;32.14;102258.94;5065598;28;20099;-68
2023/04/18 10:14:00;;;;;;;4.82;3.40;;;;;;;22.14;32.11;102264.25;5048878;28;20087;-67
2023/04/18 10:16:28;;;;;;;4.55;3.42;;;;;;;21.99;32.43;102266.78;5049009;28;20443;-67
2023/04/18 10:18:53;;;;;;;4.45;3.25;;;;;;;21.89;32.85;102257.88;5049041;28;20030;-67
2023/04/18 10:21:20;;;;;;;7.40;3.17;;;;;;;21.89;32.52;102266.06;5049299;28;20111;-68
2023/04/18 10:23:47;;;;;;;6.35;3.30;;;;;;;21.85;33.29;102275.59;5050238;28;20164;-68
2023/04/18 10:26:13;;;;;;;7.82;3.30;;;;;;;21.63;32.53;102277.06;5048924;28;20037;-67
2023/04/18 10:28:53;;;;;;;7.07;4.32;;;;;;;21.39;33.14;102280.53;5049810;28;20029;-67
2023/04/18 10:31:20;;;;;;;12.80;4.88;;;;;;;21.21;32.83;102281.66;5049954;28;20374;-67
2023/04/18 10:33:47;;;;;;;8.25;4.72;;;;;;;21.06;33.63;102275.94;5032405;28;20044;-68
2023/04/18 10:36:15;;;;;;;6.30;4.35;;;;;;;20.92;33.69;102281.97;5048768;28;20401;-68
2023/04/18 10:38:46;;;;;;;7.80;4.68;;;;;;;20.80;33.53;102294.13;5065042;28;20106;-67
2023/04/18 10:41:14;;;;;;;6.05;4.60;;;;;;;20.72;34.00;102285.91;5048439;28;20030;-68
2023/04/18 10:44:05;;;;;;;8.98;4.53;;;;;;;20.68;33.72;102279.97;5048218;28;20033;-68
2023/04/18 10:46:30;;;;;;;6.88;4.53;;;;;;;20.57;34.06;102276.63;5048636;28;20378;-67
2023/04/18 10:49:31;;;;;;;6.72;4.07;;;;;;;20.60;34.08;102276.31;5048467;28;20025;-67
2023/04/18 10:51:58;;;;;;;8.25;4.57;;;;;;;20.67;34.09;102283.69;4957645;28;20127;-67
2023/04/18 10:54:36;;;;;;;6.50;4.43;;;;;;;20.80;34.14;102278.66;4991938;28;20042;-67
2023/04/18 10:57:03;;;;;;;7.53;4.65;;;;;;;21.17;32.82;102275.69;4975141;28;20034;-67
2023/04/18 10:59:33;;;;;;;8.68;4.90;;;;;;;21.20;33.72;102259.00;4991068;28;20104;-67
2023/04/18 11:02:28;;;;;;;6.13;3.97;;;;;;;21.42;32.97;102276.63;4954709;28;20031;-67
2023/04/18 11:04:56;;;;;;;9.93;4.68;;;;;;;21.76;33.50;102262.94;4968093;28;20050;-67
2023/04/18 11:07:32;;;;;;;7.80;5.18;;;;;;;22.60;32.61;102261.66;4957578;28;20077;-67
2023/04/18 11:09:58;;;;;;;7.45;4.65;;;;;;;22.68;32.43;102262.69;4987662;28;20022;-68
2023/04/18 11:12:28;;;;;;;8.00;4.45;;;;;;;23.03;32.08;102259.56;4971965;28;20030;-68
2023/04/18 11:14:54;;;;;;;9.57;4.72;;;;;;;23.18;32.77;102255.03;4947840;28;20040;-67
2023/04/18 11:17:22;;;;;;;12.93;4.50;;;;;;;23.72;32.16;102247.81;4924595;29;20038;-68
2023/04/18 11:19:48;;;;;;;7.10;4.60;;;;;;;24.64;31.48;102249.50;4923412;29;20209;-68